createdAt,value
2022-12-31T00:00:38.653Z,41.35
2022-12-31T00:03:10.264Z,40.03
2022-12-31T00:05:37.957Z,42.45
2022-12-31T00:08:05.466Z,41.88
2022-12-31T00:10:39.920Z,41.65
2022-12-31T00:13:12.013Z,39.45
2022-12-31T00:15:41.459Z,40.17
2022-12-31T00:18:09.661Z,38.80
2022-12-31T00:20:41.872Z,41.67
2022-12-31T00:25:37.376Z,40.40
2022-12-31T00:28:05.674Z,41.88
2022-12-31T00:30:34.471Z,42.08
2022-12-31T00:33:01.839Z,40.47
2022-12-31T00:35:29.439Z,41.63
2022-12-31T00:37:56.850Z,40.95
2022-12-31T00:40:24.241Z,42.03
2022-12-31T00:42:51.648Z,39.25
2022-12-31T00:45:19.013Z,42.25
2022-12-31T00:47:46.519Z,42.70
2022-12-31T00:50:13.911Z,41.08
2022-12-31T00:52:41.287Z,41.63
2022-12-31T00:55:08.953Z,41.90
2022-12-31T00:57:36.336Z,41.45
2022-12-31T01:00:06.967Z,42.28
2022-12-31T01:02:34.469Z,39.60
2022-12-31T01:05:02.041Z,44.63
2022-12-31T01:07:29.464Z,44.30
2022-12-31T01:09:56.809Z,39.95
2022-12-31T01:12:25.158Z,41.70
2022-12-31T01:14:52.559Z,43.95
2022-12-31T01:17:19.931Z,40.90
2022-12-31T01:19:47.309Z,41.65
2022-12-31T01:22:14.759Z,40.95
2022-12-31T01:24:42.144Z,40.38
2022-12-31T01:27:09.507Z,42.60
2022-12-31T01:29:37.090Z,41.13
2022-12-31T01:32:05.314Z,39.15
2022-12-31T01:34:32.700Z,40.60
2022-12-31T01:37:00.047Z,37.40
2022-12-31T01:39:27.404Z,39.88
2022-12-31T01:41:54.809Z,43.53
2022-12-31T01:44:24.941Z,39.58
2022-12-31T01:46:54.054Z,41.10
2022-12-31T01:49:36.727Z,41.67
2022-12-31T01:52:12.971Z,38.90
2022-12-31T01:54:52.527Z,39.40
2022-12-31T01:57:21.066Z,41.42
2022-12-31T01:59:48.488Z,42.13
2022-12-31T02:02:17.278Z,40.55
2022-12-31T02:04:44.747Z,40.50
2022-12-31T02:07:12.636Z,40.33
2022-12-31T02:09:42.158Z,38.88
2022-12-31T02:12:10.225Z,39.85
2022-12-31T02:14:44.496Z,42.22
2022-12-31T02:17:44.250Z,41.53
2022-12-31T02:20:33.151Z,39.28
2022-12-31T02:23:03.483Z,41.05
2022-12-31T02:25:33.959Z,40.83
2022-12-31T02:28:28.231Z,41.88
2022-12-31T02:31:12.075Z,43.25
2022-12-31T02:33:46.299Z,43.20
2022-12-31T02:36:20.552Z,42.42
2022-12-31T02:38:49.662Z,40.78
2022-12-31T02:41:38.998Z,40.38
2022-12-31T02:44:40.568Z,40.55
2022-12-31T02:47:07.932Z,40.80
2022-12-31T02:50:16.899Z,40.85
2022-12-31T02:53:23.651Z,37.95
2022-12-31T02:56:01.203Z,39.38
2022-12-31T02:58:58.490Z,38.15
2022-12-31T03:01:50.842Z,38.85
2022-12-31T03:04:35.830Z,38.83
2022-12-31T03:07:17.743Z,37.25
2022-12-31T03:09:45.151Z,39.40
2022-12-31T03:12:32.027Z,37.38
2022-12-31T03:14:59.915Z,39.58
2022-12-31T03:17:27.697Z,39.83
2022-12-31T03:20:27.380Z,39.35
2022-12-31T03:22:54.771Z,37.80
2022-12-31T03:25:40.375Z,35.03
2022-12-31T03:28:09.203Z,38.25
2022-12-31T03:30:39.548Z,36.67
2022-12-31T03:33:07.954Z,40.15
2022-12-31T03:35:36.994Z,40.38
2022-12-31T03:38:05.357Z,39.72
2022-12-31T03:40:36.841Z,39.67
2022-12-31T03:43:04.327Z,39.67
2022-12-31T03:45:31.726Z,40.70
2022-12-31T03:47:59.239Z,40.15
2022-12-31T03:50:26.588Z,39.03
2022-12-31T03:52:54.143Z,40.67
2022-12-31T03:55:21.553Z,42.08
2022-12-31T03:57:48.950Z,39.40
2022-12-31T04:00:19.233Z,40.85
2022-12-31T04:02:48.590Z,40.13
2022-12-31T04:05:17.677Z,38.58
2022-12-31T04:07:45.505Z,42.35
2022-12-31T04:10:15.507Z,40.22
2022-12-31T04:12:43.362Z,41.78
2022-12-31T04:15:18.414Z,41.30
2022-12-31T04:17:46.821Z,41.03
2022-12-31T04:20:15.000Z,42.15
2022-12-31T04:22:42.391Z,43.60
2022-12-31T04:25:12.950Z,42.15
2022-12-31T04:27:41.499Z,42.78
2022-12-31T04:30:10.442Z,42.25
2022-12-31T04:32:37.867Z,41.22
2022-12-31T04:35:05.765Z,41.78
2022-12-31T04:37:33.150Z,42.50
2022-12-31T04:40:05.487Z,45.15
2022-12-31T04:42:34.551Z,44.10
2022-12-31T04:45:02.057Z,46.22
2022-12-31T04:47:29.461Z,42.88
2022-12-31T04:49:56.803Z,43.95
2022-12-31T04:52:24.193Z,42.28
2022-12-31T04:54:51.544Z,44.15
2022-12-31T04:57:18.918Z,44.97
2022-12-31T04:59:46.403Z,46.97
2022-12-31T05:02:14.004Z,47.13
2022-12-31T05:04:41.570Z,46.75
2022-12-31T05:07:09.005Z,47.17
2022-12-31T05:09:36.394Z,46.47
2022-12-31T05:12:03.977Z,45.90
2022-12-31T05:14:31.360Z,47.78
2022-12-31T05:16:59.362Z,46.28
2022-12-31T05:19:26.797Z,44.92
2022-12-31T05:22:14.424Z,47.42
2022-12-31T05:24:41.817Z,45.05
2022-12-31T05:27:09.401Z,47.58
2022-12-31T05:29:36.808Z,49.45
2022-12-31T05:32:04.288Z,46.58
2022-12-31T05:34:31.961Z,46.03
2022-12-31T05:36:59.317Z,48.05
2022-12-31T05:39:26.687Z,49.15
2022-12-31T05:41:54.081Z,48.53
2022-12-31T05:44:21.516Z,46.65
2022-12-31T05:46:48.894Z,46.92
2022-12-31T05:49:16.925Z,47.08
2022-12-31T05:51:44.567Z,47.15
2022-12-31T05:54:11.961Z,44.92
2022-12-31T05:56:39.344Z,45.20
2022-12-31T05:59:06.777Z,44.83
2022-12-31T06:01:34.592Z,43.17
2022-12-31T06:04:02.093Z,41.85
2022-12-31T06:06:29.511Z,43.22
2022-12-31T06:08:56.944Z,40.90
2022-12-31T06:11:24.331Z,40.65
2022-12-31T06:13:51.777Z,41.97
2022-12-31T06:16:19.191Z,40.75
2022-12-31T06:18:50.820Z,41.03
2022-12-31T06:21:20.079Z,43.58
2022-12-31T06:23:47.999Z,43.70
2022-12-31T06:26:15.840Z,44.80
2022-12-31T06:28:43.217Z,42.67
2022-12-31T06:31:14.029Z,44.90
2022-12-31T06:33:45.615Z,41.00
2022-12-31T06:36:15.680Z,43.40
2022-12-31T06:38:44.188Z,46.13
2022-12-31T06:41:13.589Z,45.20
2022-12-31T06:43:41.818Z,43.13
2022-12-31T06:46:12.065Z,44.65
2022-12-31T06:48:41.926Z,43.55
2022-12-31T06:51:17.460Z,44.15
2022-12-31T06:53:47.465Z,45.63
2022-12-31T06:56:33.953Z,44.45
2022-12-31T06:59:03.065Z,45.60
2022-12-31T07:01:52.000Z,46.42
2022-12-31T07:04:42.364Z,49.85
2022-12-31T07:07:26.625Z,49.17
2022-12-31T07:09:56.779Z,45.42
2022-12-31T07:12:40.915Z,47.10
2022-12-31T07:15:29.791Z,48.55
2022-12-31T07:18:00.265Z,47.40
2022-12-31T07:20:28.124Z,44.38
2022-12-31T07:22:55.807Z,46.85
2022-12-31T07:25:23.619Z,43.70
2022-12-31T07:28:14.300Z,45.05
2022-12-31T07:31:04.409Z,42.65
2022-12-31T07:33:58.392Z,43.78
2022-12-31T07:36:53.353Z,43.63
2022-12-31T07:39:25.498Z,43.55
2022-12-31T07:44:43.196Z,42.37
2022-12-31T07:47:25.412Z,41.95
2022-12-31T07:49:53.819Z,42.80
2022-12-31T07:52:22.003Z,43.17
2022-12-31T07:54:49.931Z,46.35
2022-12-31T07:57:19.671Z,42.75
2022-12-31T08:00:11.371Z,42.65
2022-12-31T08:03:18.626Z,41.47
2022-12-31T08:05:48.742Z,40.78
2022-12-31T08:08:29.104Z,41.45
2022-12-31T08:11:14.515Z,43.60
2022-12-31T08:13:42.890Z,42.55
2022-12-31T08:16:14.164Z,42.95
2022-12-31T08:18:41.790Z,46.03
2022-12-31T08:21:32.876Z,41.60
2022-12-31T08:24:08.505Z,41.70
2022-12-31T08:26:54.512Z,52.15
2022-12-31T08:29:42.280Z,41.22
2022-12-31T08:32:22.808Z,38.58
2022-12-31T08:35:06.126Z,41.13
2022-12-31T08:37:44.585Z,38.72
2022-12-31T08:40:24.021Z,38.38
2022-12-31T08:43:00.784Z,39.83
2022-12-31T08:45:38.241Z,40.20
2022-12-31T08:48:18.784Z,38.13
2022-12-31T08:50:46.383Z,38.53
2022-12-31T08:53:14.044Z,37.88
2022-12-31T08:55:44.004Z,41.45
2022-12-31T08:58:29.381Z,39.63
2022-12-31T09:00:59.393Z,39.67
2022-12-31T09:03:44.369Z,38.28
2022-12-31T09:06:27.125Z,37.75
2022-12-31T09:09:12.170Z,37.53
2022-12-31T09:12:03.136Z,39.83
2022-12-31T09:14:44.890Z,37.55
2022-12-31T09:17:44.879Z,38.53
2022-12-31T09:20:24.827Z,37.03
2022-12-31T09:22:53.529Z,38.15
2022-12-31T09:25:22.538Z,41.47
2022-12-31T09:28:17.374Z,37.85
2022-12-31T09:30:47.469Z,38.28
2022-12-31T09:33:26.766Z,35.63
2022-12-31T09:36:00.585Z,37.47
2022-12-31T09:38:36.910Z,35.55
2022-12-31T09:41:14.496Z,37.53
2022-12-31T09:43:58.953Z,39.45
2022-12-31T09:46:49.973Z,36.35
2022-12-31T09:49:55.045Z,37.00
2022-12-31T09:52:58.293Z,35.08
2022-12-31T09:55:52.771Z,50.78
2022-12-31T09:58:32.015Z,38.33
2022-12-31T10:01:10.601Z,33.53
2022-12-31T10:04:11.636Z,39.95
2022-12-31T10:06:42.065Z,34.88
2022-12-31T10:09:35.100Z,36.00
2022-12-31T10:12:30.817Z,37.13
2022-12-31T10:15:08.548Z,35.38
2022-12-31T10:18:12.441Z,37.55
2022-12-31T10:20:57.858Z,38.72
2022-12-31T10:23:55.657Z,33.92
2022-12-31T10:26:28.687Z,34.33
2022-12-31T10:29:18.016Z,33.13
2022-12-31T10:32:31.204Z,33.85
2022-12-31T10:35:22.276Z,33.38
2022-12-31T10:38:46.532Z,28.63
2022-12-31T10:41:42.486Z,30.83
2022-12-31T10:44:39.638Z,31.13
2022-12-31T10:47:37.632Z,29.75
2022-12-31T10:50:34.151Z,30.02
2022-12-31T10:53:19.965Z,29.05
2022-12-31T10:56:04.836Z,27.90
2022-12-31T10:58:56.243Z,29.02
2022-12-31T11:01:48.205Z,29.92
2022-12-31T11:04:52.385Z,30.85
2022-12-31T11:07:25.739Z,29.02
2022-12-31T11:09:55.958Z,29.25
2022-12-31T11:12:23.286Z,28.13
2022-12-31T11:15:04.154Z,27.55
2022-12-31T11:18:23.343Z,28.25
2022-12-31T11:21:00.285Z,27.42
2022-12-31T11:23:39.330Z,27.27
2022-12-31T11:26:32.494Z,26.10
2022-12-31T11:29:09.153Z,28.17
2022-12-31T11:32:02.218Z,25.85
2022-12-31T11:34:38.402Z,25.52
2022-12-31T11:37:42.754Z,25.35
2022-12-31T11:40:38.992Z,25.75
2022-12-31T11:43:38.473Z,33.55
2022-12-31T11:46:35.714Z,29.73
2022-12-31T11:49:27.727Z,27.33
2022-12-31T11:52:21.608Z,26.58
2022-12-31T11:55:18.535Z,26.45
2022-12-31T11:57:52.848Z,28.75
2022-12-31T12:00:25.550Z,27.60
2022-12-31T12:03:07.741Z,28.73
2022-12-31T12:05:39.730Z,26.65
2022-12-31T12:08:08.477Z,27.38
2022-12-31T12:11:08.342Z,26.33
2022-12-31T12:13:37.207Z,28.40
2022-12-31T12:16:08.456Z,26.75
2022-12-31T12:18:48.237Z,51.15
2022-12-31T12:21:23.211Z,31.20
2022-12-31T12:24:24.104Z,29.42
2022-12-31T12:26:53.131Z,29.50
2022-12-31T12:29:36.279Z,27.55
2022-12-31T12:32:18.927Z,26.95
2022-12-31T12:34:50.038Z,27.77
2022-12-31T12:37:37.591Z,29.40
2022-12-31T12:40:19.836Z,26.80
2022-12-31T12:42:51.075Z,28.65
2022-12-31T12:45:22.768Z,27.10
2022-12-31T12:47:59.798Z,27.50
2022-12-31T12:50:44.116Z,27.58
2022-12-31T12:53:38.902Z,28.58
2022-12-31T12:56:35.573Z,28.27
2022-12-31T12:59:11.502Z,28.42
2022-12-31T13:01:52.137Z,30.73
2022-12-31T13:04:37.278Z,30.05
2022-12-31T13:07:23.477Z,29.10
2022-12-31T13:10:14.530Z,27.52
2022-12-31T13:13:36.225Z,28.52
2022-12-31T13:16:12.479Z,29.20
2022-12-31T13:18:52.184Z,30.75
2022-12-31T13:21:42.364Z,78.40
2022-12-31T13:24:31.191Z,32.45
2022-12-31T13:27:07.008Z,32.28
2022-12-31T13:29:38.219Z,29.33
2022-12-31T13:32:12.137Z,28.73
2022-12-31T13:34:46.802Z,28.90
2022-12-31T13:37:32.860Z,29.38
2022-12-31T13:40:19.034Z,29.15
2022-12-31T13:43:20.015Z,28.50
2022-12-31T13:46:01.030Z,29.27
2022-12-31T13:48:53.651Z,28.88
2022-12-31T13:54:14.527Z,29.42
2022-12-31T13:56:44.588Z,29.98
2022-12-31T13:59:48.412Z,29.58
2022-12-31T14:02:45.447Z,30.42
2022-12-31T14:05:25.584Z,32.30
2022-12-31T14:07:58.316Z,31.77
2022-12-31T14:10:38.273Z,34.22
2022-12-31T14:13:21.444Z,31.50
2022-12-31T14:16:09.223Z,32.22
2022-12-31T14:18:56.346Z,33.33
2022-12-31T14:21:35.049Z,34.15
2022-12-31T14:24:17.035Z,34.70
2022-12-31T14:26:49.992Z,33.53
2022-12-31T14:29:38.968Z,33.75
2022-12-31T14:32:47.920Z,32.75
2022-12-31T14:35:31.055Z,35.72
2022-12-31T14:38:14.811Z,35.45
2022-12-31T14:41:05.627Z,32.80
2022-12-31T14:43:41.349Z,33.15
2022-12-31T14:46:21.788Z,32.88
2022-12-31T14:49:12.820Z,34.08
2022-12-31T14:51:43.067Z,33.72
2022-12-31T14:54:59.215Z,35.70
2022-12-31T14:58:01.628Z,34.53
2022-12-31T15:00:42.209Z,34.78
2022-12-31T15:03:16.444Z,36.00
2022-12-31T15:06:14.197Z,35.30
2022-12-31T15:09:08.155Z,37.35
2022-12-31T15:11:59.213Z,34.70
2022-12-31T15:14:59.157Z,35.45
2022-12-31T15:17:54.097Z,34.60
2022-12-31T15:20:46.142Z,33.17
2022-12-31T15:23:26.894Z,36.55
2022-12-31T15:26:01.848Z,35.40
2022-12-31T15:28:37.922Z,35.60
2022-12-31T15:31:19.077Z,36.40
2022-12-31T15:33:58.976Z,34.92
2022-12-31T15:36:52.605Z,36.72
2022-12-31T15:39:33.585Z,34.08
2022-12-31T15:44:58.517Z,40.85
2022-12-31T15:47:46.593Z,39.05
2022-12-31T15:50:22.516Z,38.40
2022-12-31T15:52:56.013Z,40.83
2022-12-31T15:55:38.405Z,38.28
2022-12-31T15:58:12.410Z,36.35
2022-12-31T16:01:02.583Z,40.53
2022-12-31T16:03:33.267Z,36.90
2022-12-31T16:06:11.615Z,39.63
2022-12-31T16:08:45.174Z,36.83
2022-12-31T16:11:15.167Z,38.05
2022-12-31T16:13:48.060Z,38.60
2022-12-31T16:16:33.059Z,36.90
2022-12-31T16:19:02.982Z,38.30
2022-12-31T16:21:36.023Z,37.65
2022-12-31T16:24:24.799Z,38.60
2022-12-31T16:26:57.923Z,40.95
2022-12-31T16:29:27.732Z,39.80
2022-12-31T16:31:56.793Z,37.90
2022-12-31T16:34:29.261Z,38.95
2022-12-31T16:37:04.720Z,45.90
2022-12-31T16:39:39.843Z,38.67
2022-12-31T16:42:14.858Z,38.42
2022-12-31T16:44:43.640Z,40.75
2022-12-31T16:47:32.502Z,39.40
2022-12-31T16:50:27.663Z,39.13
2022-12-31T16:53:04.656Z,38.75
2022-12-31T16:55:36.385Z,39.85
2022-12-31T16:58:19.574Z,38.75
2022-12-31T17:00:51.260Z,38.80
2022-12-31T17:03:27.506Z,40.85
2022-12-31T17:06:10.199Z,38.25
2022-12-31T17:08:44.402Z,39.45
2022-12-31T17:11:32.079Z,42.42
2022-12-31T17:14:07.045Z,42.45
2022-12-31T17:16:40.279Z,46.40
2022-12-31T17:19:32.955Z,44.97
2022-12-31T17:24:33.091Z,40.90
2022-12-31T17:27:07.810Z,43.78
2022-12-31T17:29:36.895Z,40.72
2022-12-31T17:32:26.687Z,43.25
2022-12-31T17:34:56.689Z,42.30
2022-12-31T17:37:29.597Z,44.30
2022-12-31T17:40:49.821Z,40.60
2022-12-31T17:45:22.535Z,40.78
2022-12-31T17:47:54.419Z,44.58
2022-12-31T17:50:25.664Z,43.25
2022-12-31T17:53:03.594Z,49.17
2022-12-31T17:55:33.190Z,48.97
2022-12-31T17:58:05.505Z,48.70
2022-12-31T18:00:38.263Z,51.72
2022-12-31T18:03:07.274Z,47.33
2022-12-31T18:05:36.097Z,48.40
2022-12-31T18:08:06.060Z,46.72
2022-12-31T18:10:39.437Z,49.50
2022-12-31T18:13:18.225Z,53.53
2022-12-31T18:15:48.177Z,68.13
2022-12-31T18:18:24.753Z,59.17
2022-12-31T18:21:44.815Z,49.83
2022-12-31T18:24:24.229Z,45.72
2022-12-31T18:26:55.758Z,47.38
2022-12-31T18:29:24.767Z,48.03
2022-12-31T18:31:54.681Z,50.35
2022-12-31T18:34:23.637Z,49.78
2022-12-31T18:36:52.864Z,50.78
2022-12-31T18:39:22.531Z,57.17
2022-12-31T18:41:52.361Z,58.90
2022-12-31T18:44:21.443Z,58.38
2022-12-31T18:46:54.399Z,59.92
2022-12-31T18:49:24.348Z,59.65
2022-12-31T18:51:56.152Z,56.10
2022-12-31T18:54:26.247Z,59.55
2022-12-31T18:56:57.340Z,60.72
2022-12-31T18:59:26.476Z,59.30
2022-12-31T19:01:55.497Z,59.92
2022-12-31T19:04:28.307Z,64.80
2022-12-31T19:06:58.078Z,63.50
2022-12-31T19:09:45.205Z,58.60
2022-12-31T19:12:16.851Z,60.65
2022-12-31T19:14:45.892Z,60.70
2022-12-31T19:17:15.844Z,61.50
2022-12-31T19:19:45.685Z,60.38
2022-12-31T19:22:17.255Z,58.55
2022-12-31T19:24:47.599Z,61.23
2022-12-31T19:27:16.171Z,61.08
2022-12-31T19:29:45.556Z,59.85
2022-12-31T19:32:12.981Z,61.15
2022-12-31T19:34:43.304Z,60.63
2022-12-31T19:37:16.870Z,57.70
2022-12-31T19:39:44.245Z,60.05
2022-12-31T19:42:15.584Z,55.45
2022-12-31T19:44:42.940Z,52.93
2022-12-31T19:47:13.483Z,51.00
2022-12-31T19:49:40.858Z,46.70
2022-12-31T19:52:08.411Z,47.20
2022-12-31T19:54:35.771Z,49.10
2022-12-31T19:57:03.135Z,53.15
2022-12-31T19:59:30.531Z,55.15
2022-12-31T20:01:58.092Z,64.47
2022-12-31T20:04:25.725Z,60.83
2022-12-31T20:06:53.059Z,62.03
2022-12-31T20:09:20.509Z,61.97
2022-12-31T20:11:47.924Z,60.95
2022-12-31T20:14:15.454Z,63.58
2022-12-31T20:16:42.871Z,58.70
2022-12-31T20:19:10.737Z,59.20
2022-12-31T20:21:38.829Z,57.92
2022-12-31T20:24:06.481Z,62.70
2022-12-31T20:26:33.859Z,62.60
2022-12-31T20:29:01.267Z,83.32
2022-12-31T20:31:28.677Z,69.55
2022-12-31T20:33:56.415Z,63.65
2022-12-31T20:36:23.975Z,60.15
2022-12-31T20:38:51.801Z,56.40
2022-12-31T20:41:22.111Z,56.13
2022-12-31T20:43:49.720Z,56.75
2022-12-31T20:46:21.243Z,58.80
2022-12-31T20:48:50.771Z,61.38
2022-12-31T20:51:19.511Z,60.03
2022-12-31T20:53:49.039Z,58.67
2022-12-31T20:56:17.702Z,55.25
2022-12-31T20:58:45.207Z,52.35
2022-12-31T21:01:13.746Z,52.75
2022-12-31T21:06:31.032Z,53.17
2022-12-31T21:09:00.689Z,54.60
2022-12-31T21:11:47.205Z,54.75
2022-12-31T21:14:14.925Z,54.53
2022-12-31T21:16:42.369Z,54.45
2022-12-31T21:19:10.036Z,57.22
2022-12-31T21:21:38.168Z,53.92
2022-12-31T21:24:05.870Z,56.90
2022-12-31T21:26:34.398Z,54.78
2022-12-31T21:29:01.789Z,56.35
2022-12-31T21:31:29.188Z,58.15
2022-12-31T21:33:56.551Z,56.28
2022-12-31T21:36:24.033Z,59.03
2022-12-31T21:38:51.438Z,57.97
2022-12-31T21:41:37.571Z,58.95
2022-12-31T21:44:05.029Z,60.00
2022-12-31T21:46:32.463Z,61.38
2022-12-31T21:49:01.015Z,59.28
2022-12-31T21:51:31.374Z,56.85
2022-12-31T21:53:58.758Z,56.20
2022-12-31T21:56:26.171Z,55.75
2022-12-31T21:59:14.786Z,54.55
2022-12-31T22:02:01.354Z,54.83
2022-12-31T22:05:00.906Z,53.28
2022-12-31T22:07:16.595Z,50.05
2022-12-31T22:09:44.048Z,49.58
2022-12-31T22:12:11.479Z,50.28
2022-12-31T22:14:38.846Z,49.45
2022-12-31T22:17:06.318Z,49.50
2022-12-31T22:19:39.300Z,52.08
2022-12-31T22:22:21.388Z,53.33
2022-12-31T22:24:48.782Z,56.25
2022-12-31T22:27:28.816Z,56.63
2022-12-31T22:29:57.056Z,56.72
2022-12-31T22:32:24.436Z,56.10
2022-12-31T22:34:51.795Z,120.75
2022-12-31T22:37:46.473Z,87.93
2022-12-31T22:40:07.195Z,67.20
2022-12-31T22:42:34.692Z,80.63
2022-12-31T22:45:02.103Z,94.28
2022-12-31T22:47:29.663Z,88.25
2022-12-31T22:49:57.253Z,78.80
2022-12-31T22:52:24.687Z,68.25
2022-12-31T22:54:54.550Z,65.10
2022-12-31T22:57:21.915Z,67.85
2022-12-31T22:59:49.362Z,68.40
2022-12-31T23:02:16.901Z,65.28
2022-12-31T23:04:44.505Z,74.88
2022-12-31T23:07:11.978Z,107.47
2022-12-31T23:09:57.899Z,179.70
2022-12-31T23:12:25.603Z,168.35
2022-12-31T23:15:11.759Z,131.43
2022-12-31T23:17:57.589Z,228.10
2022-12-31T23:20:44.108Z,297.88
2022-12-31T23:23:15.383Z,163.27
2022-12-31T23:25:48.355Z,103.80
2022-12-31T23:28:24.204Z,118.57
2022-12-31T23:30:52.311Z,105.82
2022-12-31T23:33:22.627Z,308.60
2022-12-31T23:35:50.082Z,438.70
2022-12-31T23:38:18.563Z,183.23
2022-12-31T23:40:46.069Z,143.52
2022-12-31T23:43:20.631Z,109.32
2022-12-31T23:45:51.741Z,101.90
2022-12-31T23:48:19.275Z,93.00
2022-12-31T23:50:53.057Z,89.05
2022-12-31T23:53:22.634Z,84.07
2022-12-31T23:55:50.834Z,80.13
2022-12-31T23:58:18.309Z,77.85
